Time;durP1;ratioP1;P1;durP2;ratioP2;P2;SDS_P1;SDS_P2;PMS_P1;PMS_P2;Temp;Humidity;BMP_temperature;BMP_pressure;BME280_temperature;BME280_humidity;BME280_pressure;Samples;Min_cycle;Max_cycle;Signal;HPM_P1;HPM_P2
2023/06/20 00:01:29;;;;;;;5.00;4.50;;;23.60;65.40;;;;;;5004549;28;20400;-68
2023/06/20 00:03:55;;;;;;;4.88;4.45;;;23.60;65.50;;;;;;5004407;28;20023;-66
2023/06/20 00:06:22;;;;;;;4.93;4.47;;;23.60;66.10;;;;;;5004478;28;20081;-67
2023/06/20 00:08:48;;;;;;;4.65;4.25;;;23.60;65.50;;;;;;5003988;28;20056;-67
2023/06/20 00:11:14;;;;;;;6.82;5.30;;;23.60;65.50;;;;;;5003634;28;20036;-68
2023/06/20 00:13:42;;;;;;;5.65;4.25;;;23.60;65.40;;;;;;5004157;28;20660;-67
2023/06/20 00:16:11;;;;;;;5.47;4.40;;;23.60;65.40;;;;;;5002303;28;20030;-67
2023/06/20 00:18:36;;;;;;;4.55;4.15;;;23.60;65.40;;;;;;5003986;28;20405;-69
2023/06/20 00:21:02;;;;;;;4.65;4.07;;;23.60;65.40;;;;;;5008645;28;20030;-68
2023/06/20 00:23:29;;;;;;;4.93;4.53;;;23.60;65.40;;;;;;5006822;28;20109;-65
2023/06/20 00:25:55;;;;;;;5.30;4.80;;;23.60;65.40;;;;;;5005588;28;20504;-68
2023/06/20 00:28:21;;;;;;;6.00;4.63;;;23.60;65.40;;;;;;5002295;28;20088;-68
2023/06/20 00:30:47;;;;;;;5.00;4.55;;;23.60;65.30;;;;;;5002329;28;20053;-68
2023/06/20 00:33:12;;;;;;;4.97;3.97;;;23.60;65.40;;;;;;5002379;28;20551;-68
2023/06/20 00:35:38;;;;;;;5.38;4.88;;;23.60;65.40;;;;;;5002347;28;20436;-66
2023/06/20 00:38:04;;;;;;;5.07;4.57;;;23.60;65.40;;;;;;5002962;28;20527;-67
2023/06/20 00:40:29;;;;;;;5.20;4.80;;;23.60;65.40;;;;;;5001048;28;20161;-67
2023/06/20 00:42:55;;;;;;;5.32;4.20;;;23.60;65.40;;;;;;5002080;28;20034;-67
2023/06/20 00:45:28;;;;;;;5.07;4.35;;;23.60;65.30;;;;;;5003080;28;20037;-67
2023/06/20 00:47:55;;;;;;;4.90;4.30;;;23.60;65.40;;;;;;5003027;28;20037;-66
2023/06/20 00:50:20;;;;;;;5.03;4.53;;;23.60;65.30;;;;;;5003034;28;20053;-66
2023/06/20 00:52:48;;;;;;;4.60;4.20;;;23.60;65.40;;;;;;5000348;28;20119;-67
2023/06/20 00:55:13;;;;;;;4.97;4.43;;;23.70;65.40;;;;;;5002981;28;20133;-66
2023/06/20 00:57:43;;;;;;;5.22;4.72;;;23.60;65.40;;;;;;5000954;28;20109;-68
2023/06/20 01:00:12;;;;;;;4.75;4.35;;;23.60;65.30;;;;;;5004061;28;20032;-67
2023/06/20 01:02:37;;;;;;;4.88;4.18;;;23.60;65.30;;;;;;5002220;28;20022;-66
2023/06/20 01:05:04;;;;;;;4.40;4.00;;;23.60;65.40;;;;;;5001683;28;20032;-68
2023/06/20 01:07:44;;;;;;;4.63;4.22;;;23.60;65.30;;;;;;5002393;28;20346;-66
2023/06/20 01:10:40;;;;;;;4.63;4.22;;;23.60;65.30;;;;;;5002550;28;20045;-68
2023/06/20 01:13:12;;;;;;;4.82;4.32;;;23.60;65.40;;;;;;5003016;28;20030;-68
2023/06/20 01:15:47;;;;;;;4.60;4.20;;;23.60;65.40;;;;;;5002507;28;20026;-67
2023/06/20 01:18:43;;;;;;;3.85;3.55;;;23.60;65.30;;;;;;5003132;28;20038;-68
2023/06/20 01:21:13;;;;;;;4.20;3.90;;;23.60;65.30;;;;;;5001476;28;20026;-67
2023/06/20 01:23:53;;;;;;;4.57;4.18;;;23.60;65.30;;;;;;4997243;28;20488;-67
2023/06/20 01:26:35;;;;;;;4.70;4.30;;;23.60;65.30;;;;;;5003610;28;20042;-67
2023/06/20 01:29:32;;;;;;;5.55;4.28;;;23.60;65.30;;;;;;5002754;28;20559;-67
2023/06/20 01:32:03;;;;;;;5.22;4.10;;;23.60;65.30;;;;;;5002715;28;20180;-67
2023/06/20 01:34:30;;;;;;;5.05;4.22;;;23.60;65.30;;;;;;4999036;28;20042;-66
2023/06/20 01:36:59;;;;;;;4.45;4.05;;;23.60;65.30;;;;;;5002334;28;20041;-68
2023/06/20 01:39:32;;;;;;;4.30;3.90;;;23.60;65.30;;;;;;5003165;28;20134;-67
2023/06/20 01:42:02;;;;;;;4.50;4.10;;;23.70;65.30;;;;;;5003402;28;20079;-67
2023/06/20 01:44:28;;;;;;;4.57;4.18;;;23.60;65.30;;;;;;5001320;28;20033;-65
2023/06/20 01:46:56;;;;;;;4.47;4.13;;;23.60;65.30;;;;;;4999916;28;20034;-67
2023/06/20 01:49:23;;;;;;;4.25;3.92;;;23.60;65.30;;;;;;5004224;28;20105;-67
2023/06/20 01:51:55;;;;;;;4.45;3.63;;;23.60;65.30;;;;;;5006288;28;20026;-67
2023/06/20 01:54:22;;;;;;;4.80;4.40;;;23.70;65.30;;;;;;5008117;28;20034;-68
2023/06/20 01:56:48;;;;;;;4.15;3.85;;;23.60;65.30;;;;;;5005386;28;20034;-67
2023/06/20 01:59:15;;;;;;;4.03;3.67;;;23.60;65.30;;;;;;5008332;28;20044;-67
2023/06/20 02:01:42;;;;;;;4.15;3.75;;;23.60;65.30;;;;;;5008094;28;20022;-67
2023/06/20 02:04:09;;;;;;;5.35;4.03;;;23.60;65.20;;;;;;5007278;28;20037;-67
2023/06/20 02:06:36;;;;;;;4.35;4.00;;;23.60;65.30;;;;;;5006937;28;20044;-67
2023/06/20 02:09:04;;;;;;;4.40;4.00;;;23.60;65.30;;;;;;5004843;28;20033;-66
2023/06/20 02:11:29;;;;;;;4.35;3.97;;;23.60;65.20;;;;;;5005123;28;20723;-67
2023/06/20 02:13:57;;;;;;;4.45;4.05;;;23.60;65.30;;;;;;5006151;28;20034;-67
2023/06/20 02:16:24;;;;;;;4.45;4.07;;;23.60;65.20;;;;;;5006111;28;20026;-67
2023/06/20 02:18:50;;;;;;;4.28;3.88;;;23.60;65.30;;;;;;5004104;28;20045;-68
2023/06/20 02:21:22;;;;;;;4.90;4.50;;;23.60;65.30;;;;;;5006237;28;20451;-68
2023/06/20 02:23:50;;;;;;;4.30;4.00;;;23.60;65.20;;;;;;5004046;28;20154;-67
2023/06/20 02:26:18;;;;;;;4.93;4.53;;;23.60;65.20;;;;;;5006256;28;20069;-68
2023/06/20 02:28:49;;;;;;;4.30;3.90;;;23.60;65.20;;;;;;5005205;28;20222;-67
2023/06/20 02:31:20;;;;;;;4.63;4.22;;;23.60;65.30;;;;;;5007100;28;20045;-68
2023/06/20 02:33:49;;;;;;;4.63;4.22;;;23.60;65.30;;;;;;5005804;28;20033;-68
2023/06/20 02:36:16;;;;;;;4.38;3.97;;;23.60;65.20;;;;;;5006666;28;20050;-67
2023/06/20 02:38:41;;;;;;;4.45;4.07;;;23.70;65.30;;;;;;5003813;28;20026;-65
2023/06/20 02:41:07;;;;;;;4.35;3.95;;;23.60;65.20;;;;;;5005891;28;20026;-67
2023/06/20 02:43:32;;;;;;;4.47;4.07;;;23.60;65.20;;;;;;5002398;28;20033;-68
2023/06/20 02:46:30;;;;;;;4.25;3.92;;;23.60;65.20;;;;;;5002684;28;20511;-67
2023/06/20 02:49:06;;;;;;;4.28;3.97;;;23.60;65.20;;;;;;5002190;28;20097;-67
2023/06/20 02:51:53;;;;;;;4.93;4.43;;;23.60;65.20;;;;;;5006073;28;20022;-67
2023/06/20 02:54:26;;;;;;;4.55;4.00;;;23.60;65.20;;;;;;5003753;28;21626;-68
2023/06/20 02:56:53;;;;;;;4.50;4.20;;;23.60;65.20;;;;;;5005323;28;20048;-68
2023/06/20 02:59:22;;;;;;;4.55;4.15;;;23.60;65.30;;;;;;5003439;28;20121;-68
2023/06/20 03:01:49;;;;;;;5.50;4.35;;;23.60;65.20;;;;;;5004546;28;20060;-68
2023/06/20 03:04:18;;;;;;;4.25;3.80;;;23.60;65.20;;;;;;5006029;28;20048;-68
2023/06/20 03:06:46;;;;;;;4.68;4.28;;;23.60;65.30;;;;;;5006149;28;20040;-66
2023/06/20 03:09:13;;;;;;;4.38;4.05;;;23.60;65.30;;;;;;5007805;28;20455;-68
2023/06/20 03:11:39;;;;;;;4.60;4.20;;;23.60;65.20;;;;;;5007045;28;20117;-68
2023/06/20 03:14:10;;;;;;;4.30;3.90;;;23.60;65.20;;;;;;5008506;28;20106;-67
2023/06/20 03:16:35;;;;;;;5.03;4.03;;;23.60;65.20;;;;;;5005375;28;20029;-64
2023/06/20 03:19:02;;;;;;;4.15;3.85;;;23.60;65.10;;;;;;5005274;28;20396;-67
2023/06/20 03:21:28;;;;;;;4.45;4.05;;;23.60;65.20;;;;;;5004336;28;20504;-66
2023/06/20 03:23:53;;;;;;;4.03;3.72;;;23.60;65.20;;;;;;5005568;28;20038;-68
2023/06/20 03:26:19;;;;;;;4.32;3.92;;;23.60;65.20;;;;;;5006873;28;20064;-68
2023/06/20 03:28:44;;;;;;;4.65;4.28;;;23.70;65.20;;;;;;5005235;28;20033;-67
2023/06/20 03:31:10;;;;;;;5.00;4.50;;;23.60;65.20;;;;;;5004817;28;20029;-66
2023/06/20 03:33:35;;;;;;;4.20;3.90;;;23.60;65.20;;;;;;5004109;28;20038;-67
2023/06/20 03:36:01;;;;;;;4.53;4.13;;;23.60;65.30;;;;;;4995689;28;20788;-67
2023/06/20 03:38:26;;;;;;;4.10;3.80;;;23.70;65.20;;;;;;5002435;28;20032;-68
2023/06/20 03:40:52;;;;;;;4.18;3.83;;;23.60;65.20;;;;;;5003604;28;20128;-67
2023/06/20 03:43:18;;;;;;;4.53;4.15;;;23.60;65.10;;;;;;5001185;28;20481;-67
2023/06/20 03:45:43;;;;;;;4.70;4.20;;;23.60;65.10;;;;;;4999689;28;20030;-68
2023/06/20 03:48:09;;;;;;;4.63;4.22;;;23.70;65.20;;;;;;5003983;28;20034;-65
2023/06/20 03:50:34;;;;;;;4.35;3.95;;;23.60;65.20;;;;;;5004005;28;20029;-68
2023/06/20 03:52:59;;;;;;;4.22;3.92;;;23.60;65.10;;;;;;5003065;28;20038;-67
2023/06/20 03:55:25;;;;;;;4.72;4.13;;;23.70;65.20;;;;;;5003307;28;20050;-68
2023/06/20 03:57:51;;;;;;;5.13;4.50;;;23.60;65.10;;;;;;5003901;28;20042;-67
2023/06/20 04:00:16;;;;;;;3.95;3.65;;;23.70;65.20;;;;;;5004307;28;20030;-67
2023/06/20 04:02:42;;;;;;;4.10;3.75;;;23.60;65.00;;;;;;5002606;28;20045;-67
2023/06/20 04:05:09;;;;;;;3.70;3.40;;;23.70;65.20;;;;;;5000665;28;20349;-68
2023/06/20 04:07:34;;;;;;;4.90;3.80;;;23.70;65.10;;;;;;5003496;28;20038;-68
2023/06/20 04:10:00;;;;;;;4.80;4.40;;;23.70;65.10;;;;;;5003445;28;20480;-68
2023/06/20 04:12:25;;;;;;;4.55;4.20;;;23.60;65.20;;;;;;4997646;28;20033;-68
2023/06/20 04:14:53;;;;;;;4.43;4.03;;;23.60;65.10;;;;;;5000418;28;20112;-68
2023/06/20 04:17:19;;;;;;;4.50;4.10;;;23.70;65.10;;;;;;5004144;28;20091;-68
2023/06/20 04:19:44;;;;;;;4.57;4.18;;;23.70;65.20;;;;;;5004353;28;20025;-68
2023/06/20 04:22:11;;;;;;;4.07;3.70;;;23.60;65.00;;;;;;5004285;28;20060;-68
2023/06/20 04:24:37;;;;;;;4.45;4.00;;;23.70;65.10;;;;;;5002128;28;20306;-64
2023/06/20 04:27:03;;;;;;;4.30;3.90;;;23.60;65.10;;;;;;5004019;28;20404;-68
2023/06/20 04:29:29;;;;;;;4.72;4.25;;;23.70;65.10;;;;;;5002976;28;20064;-65
2023/06/20 04:31:55;;;;;;;4.13;3.78;;;23.70;65.10;;;;;;5003198;28;20109;-68
2023/06/20 04:34:23;;;;;;;4.45;4.05;;;23.60;65.00;;;;;;4998591;28;20524;-67
2023/06/20 04:36:49;;;;;;;4.80;4.25;;;23.60;65.00;;;;;;5001780;28;20026;-67
2023/06/20 04:39:15;;;;;;;4.22;3.83;;;23.60;65.00;;;;;;5003824;28;20034;-67
2023/06/20 04:41:41;;;;;;;4.38;3.97;;;23.70;65.00;;;;;;5000118;28;20041;-68
2023/06/20 04:44:06;;;;;;;4.10;3.80;;;23.70;65.10;;;;;;4997054;28;20072;-68
2023/06/20 04:46:32;;;;;;;5.00;4.57;;;23.70;65.10;;;;;;5001074;28;20037;-66
2023/06/20 04:48:57;;;;;;;4.65;4.25;;;23.60;65.00;;;;;;5014030;28;20507;-68
2023/06/20 04:51:22;;;;;;;4.22;3.92;;;23.70;65.10;;;;;;5012153;28;20083;-68
2023/06/20 04:53:49;;;;;;;7.60;5.20;;;23.70;65.70;;;;;;5002376;28;20281;-69
2023/06/20 04:56:15;;;;;;;9.88;7.38;;;23.70;66.90;;;;;;5003655;28;20420;-68
2023/06/20 04:58:45;;;;;;;12.77;7.75;;;23.70;66.80;;;;;;5000370;28;20039;-68
2023/06/20 05:01:10;;;;;;;10.15;8.38;;;23.80;66.80;;;;;;5001821;28;20053;-69
2023/06/20 05:03:35;;;;;;;9.80;8.45;;;23.70;67.60;;;;;;5003227;28;20034;-67
2023/06/20 05:06:01;;;;;;;8.18;7.38;;;23.60;67.90;;;;;;5002566;28;20095;-67
2023/06/20 05:08:27;;;;;;;8.68;7.88;;;23.60;67.30;;;;;;5003125;28;20040;-67
2023/06/20 05:10:52;;;;;;;9.52;7.53;;;23.60;67.70;;;;;;4995894;28;20034;-65
2023/06/20 05:13:18;;;;;;;7.93;7.15;;;23.60;67.30;;;;;;5003867;28;20041;-68
2023/06/20 05:15:43;;;;;;;8.70;7.80;;;23.70;67.10;;;;;;5002505;28;20493;-65
2023/06/20 05:18:09;;;;;;;8.25;7.55;;;23.60;66.90;;;;;;5002182;28;20645;-67
2023/06/20 05:20:34;;;;;;;8.40;7.60;;;23.70;66.70;;;;;;5003926;28;20032;-65
2023/06/20 05:23:00;;;;;;;8.93;7.65;;;23.70;66.60;;;;;;5001154;28;20238;-66
2023/06/20 05:25:25;;;;;;;9.43;7.93;;;23.70;67.10;;;;;;5005724;28;20046;-65
2023/06/20 05:27:51;;;;;;;8.25;7.45;;;23.70;67.00;;;;;;5006165;28;20034;-65
2023/06/20 05:30:16;;;;;;;8.68;7.68;;;23.70;67.50;;;;;;5005656;28;20405;-65
2023/06/20 05:32:42;;;;;;;9.13;8.23;;;23.70;68.40;;;;;;5005955;28;20156;-65
2023/06/20 05:35:08;;;;;;;10.13;7.40;;;23.70;67.60;;;;;;5006749;28;20125;-66
2023/06/20 05:37:34;;;;;;;8.80;7.93;;;23.70;67.50;;;;;;5005641;28;20600;-67
2023/06/20 05:40:00;;;;;;;9.85;7.45;;;23.70;67.10;;;;;;5007006;28;20978;-68
2023/06/20 05:42:25;;;;;;;8.30;7.55;;;23.70;67.20;;;;;;5003448;28;20038;-68
2023/06/20 05:44:51;;;;;;;8.43;7.63;;;23.70;67.00;;;;;;5004992;28;20022;-65
2023/06/20 05:47:20;;;;;;;8.18;7.38;;;23.70;67.20;;;;;;5005100;28;20128;-67
2023/06/20 05:49:46;;;;;;;9.43;7.55;;;23.70;67.20;;;;;;5007423;28;20026;-67
2023/06/20 05:52:12;;;;;;;10.57;7.55;;;23.70;67.30;;;;;;5008240;28;20200;-66
2023/06/20 05:54:38;;;;;;;8.30;7.47;;;23.70;67.50;;;;;;5006783;28;20429;-66
2023/06/20 05:57:05;;;;;;;8.10;7.40;;;23.70;67.50;;;;;;5006471;28;20631;-64
2023/06/20 05:59:31;;;;;;;8.32;7.45;;;23.70;67.40;;;;;;5005843;28;20511;-68
2023/06/20 06:01:56;;;;;;;7.75;6.90;;;23.70;67.10;;;;;;5007171;28;20041;-63
2023/06/20 06:04:22;;;;;;;13.30;7.93;;;23.70;67.00;;;;;;5005108;28;20034;-62
2023/06/20 06:06:48;;;;;;;9.80;7.85;;;23.70;67.60;;;;;;5005864;28;20038;-69
2023/06/20 06:09:14;;;;;;;9.52;8.02;;;23.70;67.60;;;;;;5006758;28;20041;-62
2023/06/20 06:11:40;;;;;;;8.48;7.25;;;23.70;67.70;;;;;;5003459;28;20369;-66
2023/06/20 06:14:06;;;;;;;7.97;7.22;;;23.70;67.70;;;;;;5038108;28;20041;-67
2023/06/20 06:16:31;;;;;;;10.45;7.50;;;23.70;67.70;;;;;;5005513;28;20281;-65
2023/06/20 06:18:57;;;;;;;10.05;7.93;;;23.70;67.80;;;;;;5005812;28;20034;-67
2023/06/20 06:21:22;;;;;;;8.40;7.45;;;23.70;67.80;;;;;;5006284;28;20033;-64
2023/06/20 06:23:48;;;;;;;8.93;8.02;;;23.70;67.60;;;;;;5005241;28;20477;-65
2023/06/20 06:26:14;;;;;;;9.50;8.27;;;23.60;68.00;;;;;;5005885;28;20065;-64
2023/06/20 06:28:40;;;;;;;8.25;6.85;;;23.60;68.10;;;;;;5003900;28;20034;-65
2023/06/20 06:31:09;;;;;;;8.63;7.72;;;23.60;68.10;;;;;;5006800;28;20062;-65
2023/06/20 06:33:35;;;;;;;8.10;7.30;;;23.60;68.00;;;;;;5004943;28;20042;-61
2023/06/20 06:36:00;;;;;;;8.55;7.85;;;23.60;67.80;;;;;;5005455;28;20052;-65
2023/06/20 06:38:26;;;;;;;8.18;7.38;;;23.60;67.60;;;;;;5004368;28;20089;-67
2023/06/20 06:40:54;;;;;;;8.18;7.43;;;23.60;67.60;;;;;;5003653;28;20041;-66
2023/06/20 06:43:20;;;;;;;8.73;7.82;;;23.60;67.50;;;;;;5004328;28;20270;-62
2023/06/20 06:45:46;;;;;;;8.40;7.60;;;23.60;67.60;;;;;;5004748;28;20520;-66
2023/06/20 06:48:12;;;;;;;9.23;8.32;;;23.60;67.50;;;;;;5005789;28;20030;-65
2023/06/20 06:50:37;;;;;;;9.10;8.18;;;23.60;67.20;;;;;;5005904;28;20038;-67
2023/06/20 06:53:03;;;;;;;8.68;7.85;;;23.60;67.20;;;;;;5004789;28;20834;-68
2023/06/20 06:55:28;;;;;;;11.85;8.38;;;23.60;67.10;;;;;;5004658;28;20033;-67
2023/06/20 06:57:53;;;;;;;11.68;8.15;;;23.60;67.50;;;;;;5004030;28;20081;-64
2023/06/20 07:00:19;;;;;;;9.10;8.20;;;23.60;67.60;;;;;;5005740;28;20061;-68
2023/06/20 07:02:45;;;;;;;9.18;8.27;;;23.60;67.50;;;;;;5004966;28;20057;-65
2023/06/20 07:05:11;;;;;;;10.57;8.18;;;23.60;67.20;;;;;;5003811;28;20036;-65
2023/06/20 07:07:37;;;;;;;9.57;8.52;;;23.60;67.50;;;;;;5002513;28;20121;-63
2023/06/20 07:10:05;;;;;;;13.88;8.60;;;23.60;67.30;;;;;;5002664;28;20792;-64
2023/06/20 07:12:31;;;;;;;12.32;9.15;;;23.60;67.30;;;;;;5004065;28;20124;-67
2023/06/20 07:14:56;;;;;;;9.23;8.23;;;23.70;67.90;;;;;;5001417;28;20369;-63
2023/06/20 07:17:25;;;;;;;9.57;8.55;;;23.70;67.50;;;;;;5004038;28;20505;-64
2023/06/20 07:19:51;;;;;;;8.52;7.55;;;23.70;68.10;;;;;;5000712;28;20037;-65
2023/06/20 07:22:17;;;;;;;9.98;8.02;;;23.70;67.40;;;;;;5004552;28;20034;-68
2023/06/20 07:24:43;;;;;;;9.98;7.78;;;23.70;67.30;;;;;;5004547;28;20066;-67
2023/06/20 07:27:08;;;;;;;8.52;7.63;;;23.70;67.20;;;;;;5005214;28;20029;-67
2023/06/20 07:29:34;;;;;;;9.40;8.10;;;23.70;67.30;;;;;;4996750;28;20022;-64
2023/06/20 07:31:59;;;;;;;11.30;8.07;;;23.70;68.00;;;;;;5004118;28;20034;-64
2023/06/20 07:34:25;;;;;;;9.18;8.25;;;23.70;67.50;;;;;;5003863;28;20034;-64
2023/06/20 07:36:50;;;;;;;8.10;7.20;;;23.70;67.20;;;;;;5001321;28;20101;-67
2023/06/20 07:39:16;;;;;;;11.02;7.78;;;23.70;67.40;;;;;;5001760;28;20041;-66
2023/06/20 07:41:41;;;;;;;8.73;7.85;;;23.70;67.00;;;;;;5002832;28;20024;-67
2023/06/20 07:44:10;;;;;;;8.77;7.15;;;23.70;67.10;;;;;;5004134;28;20444;-64
2023/06/20 07:46:36;;;;;;;8.45;7.47;;;23.70;67.00;;;;;;5004825;28;20566;-67
2023/06/20 07:49:02;;;;;;;8.50;7.70;;;23.70;67.00;;;;;;5005153;28;20409;-66
2023/06/20 07:51:31;;;;;;;9.80;8.00;;;23.70;66.90;;;;;;5004845;28;20056;-65
2023/06/20 07:53:56;;;;;;;9.20;7.30;;;23.70;67.00;;;;;;5003949;28;20045;-67
2023/06/20 07:56:22;;;;;;;8.57;7.78;;;23.70;67.00;;;;;;5006647;28;20026;-68
2023/06/20 07:58:47;;;;;;;7.88;7.07;;;23.70;66.90;;;;;;5005842;28;20038;-68
2023/06/20 08:01:13;;;;;;;8.52;7.25;;;23.70;67.00;;;;;;5004629;28;20034;-68
2023/06/20 08:03:38;;;;;;;7.93;7.13;;;23.70;66.90;;;;;;5002083;28;20074;-67
2023/06/20 08:06:04;;;;;;;7.40;6.65;;;23.70;66.80;;;;;;5000478;28;20369;-67
2023/06/20 08:08:29;;;;;;;8.57;7.85;;;23.70;66.80;;;;;;5004076;28;20042;-67
2023/06/20 08:10:55;;;;;;;7.95;7.15;;;23.70;66.80;;;;;;5003920;28;20152;-68
2023/06/20 08:13:21;;;;;;;8.38;7.28;;;23.70;67.00;;;;;;5004409;28;20116;-67
2023/06/20 08:15:46;;;;;;;8.30;7.55;;;23.70;66.90;;;;;;5002475;28;20029;-67
2023/06/20 08:18:12;;;;;;;8.52;7.78;;;23.70;66.90;;;;;;5004286;28;20385;-68
2023/06/20 08:20:37;;;;;;;9.20;7.35;;;23.70;67.00;;;;;;5000540;28;20040;-67
2023/06/20 08:23:02;;;;;;;7.82;7.03;;;23.70;66.90;;;;;;5003181;28;20034;-67
2023/06/20 08:25:28;;;;;;;9.40;8.18;;;23.70;66.80;;;;;;5003234;28;20101;-66
2023/06/20 08:27:53;;;;;;;8.73;7.85;;;23.70;66.90;;;;;;5000440;28;20018;-67
2023/06/20 08:30:19;;;;;;;8.55;7.70;;;23.70;66.80;;;;;;4999380;28;20044;-67
2023/06/20 08:32:45;;;;;;;7.97;7.18;;;23.70;66.90;;;;;;5000836;28;20061;-67
2023/06/20 08:35:10;;;;;;;9.88;8.98;;;23.70;66.80;;;;;;5000429;28;20042;-67
2023/06/20 08:37:37;;;;;;;8.02;7.22;;;23.70;67.00;;;;;;5004028;28;20109;-67
2023/06/20 08:40:08;;;;;;;8.77;7.82;;;23.70;67.10;;;;;;5002264;28;20513;-68
2023/06/20 08:42:33;;;;;;;7.60;6.80;;;23.70;66.80;;;;;;5002764;28;20055;-67
2023/06/20 08:44:59;;;;;;;9.02;8.13;;;23.70;66.90;;;;;;5002087;28;20095;-67
2023/06/20 08:47:25;;;;;;;8.90;8.00;;;23.70;67.60;;;;;;5003162;28;20124;-69
2023/06/20 08:49:50;;;;;;;10.88;8.40;;;23.70;67.00;;;;;;5001818;28;20057;-67
2023/06/20 08:52:23;;;;;;;10.10;9.10;;;23.70;67.60;;;;;;5004748;28;20131;-68
2023/06/20 08:54:49;;;;;;;8.73;7.90;;;23.70;67.60;;;;;;5003588;28;20030;-68
2023/06/20 08:57:14;;;;;;;9.02;8.05;;;23.70;67.80;;;;;;5004483;28;20033;-68
2023/06/20 08:59:40;;;;;;;8.38;7.57;;;23.70;67.60;;;;;;5000290;28;20040;-67
2023/06/20 09:02:07;;;;;;;9.02;7.38;;;23.70;67.10;;;;;;4997689;28;20030;-67
2023/06/20 09:04:33;;;;;;;8.73;7.93;;;23.80;67.70;;;;;;4999398;28;20056;-68
2023/06/20 09:07:01;;;;;;;9.00;8.10;;;23.80;67.30;;;;;;5000898;28;20026;-67
2023/06/20 09:09:26;;;;;;;10.98;9.98;;;23.80;67.30;;;;;;5003709;28;20114;-67
2023/06/20 09:11:58;;;;;;;8.88;8.00;;;23.80;67.90;;;;;;5000683;28;20109;-68
2023/06/20 09:14:26;;;;;;;10.55;9.55;;;23.80;67.20;;;;;;5002278;28;20034;-67
2023/06/20 09:16:51;;;;;;;9.32;8.52;;;23.80;67.50;;;;;;4999165;28;20022;-67
2023/06/20 09:19:17;;;;;;;11.02;9.43;;;23.80;67.30;;;;;;5003892;28;20030;-67
2023/06/20 09:21:42;;;;;;;11.25;10.05;;;23.80;67.70;;;;;;5003206;28;20030;-68
2023/06/20 09:24:08;;;;;;;10.20;8.02;;;23.80;67.70;;;;;;5003257;28;20022;-68
2023/06/20 09:26:34;;;;;;;9.95;8.95;;;23.80;67.90;;;;;;5002525;28;20026;-67
2023/06/20 09:29:09;;;;;;;9.80;8.80;;;23.80;68.10;;;;;;5001680;28;20448;-67
2023/06/20 09:31:48;;;;;;;9.25;8.35;;;23.80;68.10;;;;;;5002169;28;20038;-66
2023/06/20 09:34:18;;;;;;;11.73;10.43;;;23.80;68.00;;;;;;4996982;28;20539;-67
2023/06/20 09:36:44;;;;;;;12.23;11.02;;;23.80;67.80;;;;;;5002385;28;20172;-67
2023/06/20 09:39:20;;;;;;;13.27;10.60;;;23.80;68.30;;;;;;5000677;28;20026;-68
2023/06/20 09:41:49;;;;;;;12.32;10.55;;;23.80;68.40;;;;;;4999330;28;20393;-65
2023/06/20 09:44:15;;;;;;;13.10;10.00;;;23.80;68.80;;;;;;5003176;28;20041;-68
2023/06/20 09:46:40;;;;;;;12.63;10.65;;;23.80;68.70;;;;;;5000708;28;20038;-67
2023/06/20 09:49:07;;;;;;;14.77;11.18;;;23.80;68.50;;;;;;5001017;28;20037;-67
2023/06/20 09:51:47;;;;;;;13.38;12.07;;;23.90;68.50;;;;;;5000024;28;20029;-68
2023/06/20 09:54:15;;;;;;;13.77;12.40;;;23.80;69.10;;;;;;5002706;28;20030;-68
2023/06/20 09:56:47;;;;;;;14.13;12.07;;;23.90;69.30;;;;;;5000226;28;20030;-65
2023/06/20 09:59:15;;;;;;;11.38;10.18;;;23.80;69.00;;;;;;5002370;28;20062;-68
2023/06/20 10:01:41;;;;;;;17.55;12.43;;;23.80;68.60;;;;;;5002212;28;20034;-66
2023/06/20 10:04:07;;;;;;;11.73;10.57;;;23.90;68.80;;;;;;4997643;28;20118;-68
2023/06/20 10:06:37;;;;;;;13.48;12.07;;;23.90;69.40;;;;;;5001989;28;20136;-68
2023/06/20 10:09:07;;;;;;;12.55;11.20;;;23.90;68.90;;;;;;5000154;28;20052;-67
2023/06/20 10:11:37;;;;;;;13.18;10.85;;;23.90;69.20;;;;;;5003033;28;20049;-67
2023/06/20 10:14:04;;;;;;;15.45;12.07;;;23.90;68.70;;;;;;5005485;28;20096;-67
2023/06/20 10:16:30;;;;;;;18.98;13.32;;;23.90;69.20;;;;;;5005525;28;20537;-68
2023/06/20 10:18:56;;;;;;;14.57;13.07;;;23.90;69.40;;;;;;5005347;28;20160;-66
2023/06/20 10:21:59;;;;;;;13.88;11.77;;;23.90;69.60;;;;;;5004459;28;20073;-68
2023/06/20 10:24:29;;;;;;;13.98;12.02;;;23.90;69.70;;;;;;5001988;28;20033;-68
2023/06/20 10:27:01;;;;;;;16.55;11.50;;;24.00;69.70;;;;;;5006170;28;20034;-68
2023/06/20 10:29:28;;;;;;;14.68;11.98;;;24.00;69.30;;;;;;5006835;28;20529;-67
2023/06/20 10:32:02;;;;;;;13.70;12.38;;;24.00;69.60;;;;;;5004016;28;20496;-65
2023/06/20 10:34:39;;;;;;;13.82;12.18;;;24.00;69.50;;;;;;5006011;28;20125;-66
2023/06/20 10:37:08;;;;;;;13.32;11.75;;;24.00;69.50;;;;;;5005195;28;20026;-67
2023/06/20 10:39:34;;;;;;;13.32;11.93;;;24.00;69.20;;;;;;5006293;28;20542;-67
2023/06/20 10:42:05;;;;;;;12.95;11.68;;;24.00;69.60;;;;;;5003510;28;20034;-66
2023/06/20 10:44:31;;;;;;;15.18;11.80;;;24.00;69.40;;;;;;5004407;28;20392;-67
2023/06/20 10:46:57;;;;;;;13.20;11.90;;;24.00;69.80;;;;;;5004912;28;20038;-67
2023/06/20 10:49:22;;;;;;;14.32;12.82;;;24.00;69.80;;;;;;5006143;28;20088;-68
2023/06/20 10:51:53;;;;;;;11.85;10.75;;;24.00;70.10;;;;;;5005201;28;20042;-67
2023/06/20 10:54:21;;;;;;;12.68;11.43;;;24.10;70.10;;;;;;5005307;28;20072;-67
2023/06/20 10:56:46;;;;;;;12.43;11.23;;;24.10;70.20;;;;;;5005478;28;20058;-67
2023/06/20 10:59:19;;;;;;;13.95;12.07;;;24.00;69.50;;;;;;5005428;28;20551;-67
2023/06/20 11:01:45;;;;;;;12.70;11.43;;;24.10;69.30;;;;;;5002055;28;20038;-67
2023/06/20 11:04:13;;;;;;;12.55;11.25;;;24.10;69.40;;;;;;5005015;28;20030;-67
2023/06/20 11:06:39;;;;;;;14.50;11.75;;;24.00;69.50;;;;;;5004928;28;20026;-67
2023/06/20 11:09:14;;;;;;;13.10;11.95;;;24.10;69.50;;;;;;5003968;28;20411;-67
2023/06/20 11:11:40;;;;;;;13.85;12.48;;;24.10;69.20;;;;;;5002814;28;20021;-66
2023/06/20 11:14:12;;;;;;;12.80;11.48;;;24.10;69.70;;;;;;5001827;28;20045;-67
2023/06/20 11:16:40;;;;;;;13.25;9.90;;;24.10;69.60;;;;;;4991125;28;20084;-67
2023/06/20 11:19:05;;;;;;;14.02;12.65;;;24.10;69.40;;;;;;5000963;28;20399;-68
2023/06/20 11:21:31;;;;;;;14.80;10.32;;;24.10;69.50;;;;;;5002999;28;20034;-67
2023/06/20 11:24:01;;;;;;;15.23;11.98;;;24.10;69.20;;;;;;5003151;28;20037;-67
2023/06/20 11:26:34;;;;;;;13.85;12.55;;;24.10;69.30;;;;;;5001060;28;20080;-67
2023/06/20 11:29:04;;;;;;;12.60;11.30;;;24.10;69.30;;;;;;5002081;28;20110;-66
2023/06/20 11:31:30;;;;;;;13.25;12.02;;;24.10;69.30;;;;;;4999897;28;20038;-66
2023/06/20 11:34:06;;;;;;;13.73;11.68;;;24.10;69.90;;;;;;5002305;28;20033;-67
2023/06/20 11:36:33;;;;;;;13.23;10.60;;;24.20;69.70;;;;;;4996511;28;20042;-66
2023/06/20 11:39:00;;;;;;;11.07;10.07;;;24.20;69.40;;;;;;5003809;28;20108;-65
2023/06/20 11:41:32;;;;;;;12.60;11.40;;;24.20;69.30;;;;;;5004083;28;20070;-67
2023/06/20 11:43:58;;;;;;;10.77;9.68;;;24.20;69.30;;;;;;5003168;28;20573;-67
2023/06/20 11:46:24;;;;;;;12.27;11.07;;;24.10;69.00;;;;;;5004864;28;20048;-67
2023/06/20 11:48:52;;;;;;;10.80;9.80;;;24.10;69.30;;;;;;5002439;28;20160;-67
2023/06/20 11:51:23;;;;;;;13.73;12.07;;;24.10;69.10;;;;;;5003561;28;20040;-67
2023/06/20 11:54:02;;;;;;;12.05;10.85;;;24.20;69.90;;;;;;5000268;28;20038;-64
2023/06/20 11:56:28;;;;;;;11.73;10.52;;;24.20;69.30;;;;;;5003076;28;20080;-65
2023/06/20 11:58:53;;;;;;;11.85;10.85;;;24.20;69.30;;;;;;5002261;28;20034;-67
2023/06/20 12:01:21;;;;;;;12.07;10.98;;;24.20;69.20;;;;;;4997874;28;20037;-67
2023/06/20 12:04:02;;;;;;;12.30;10.93;;;24.20;69.00;;;;;;5003277;28;20046;-66
2023/06/20 12:06:32;;;;;;;12.10;10.90;;;24.20;68.90;;;;;;5003463;28;20038;-65
2023/06/20 12:09:09;;;;;;;11.57;10.50;;;24.20;68.80;;;;;;5000567;28;20112;-67
2023/06/20 12:11:44;;;;;;;12.02;10.93;;;24.20;68.80;;;;;;5002535;28;20496;-67
2023/06/20 12:14:10;;;;;;;12.40;11.18;;;24.20;68.90;;;;;;4992708;28;20217;-67
2023/06/20 12:16:36;;;;;;;11.98;10.88;;;24.20;69.00;;;;;;5002862;28;20113;-66
2023/06/20 12:19:02;;;;;;;12.55;11.35;;;24.20;69.30;;;;;;5003568;28;20022;-68
2023/06/20 12:21:27;;;;;;;12.30;11.13;;;24.20;69.50;;;;;;5003883;28;20038;-65
2023/06/20 12:23:52;;;;;;;13.43;11.70;;;24.20;69.40;;;;;;5002937;28;20649;-67
2023/06/20 12:26:18;;;;;;;13.15;11.55;;;24.20;69.10;;;;;;5000104;28;20045;-68
2023/06/20 12:28:43;;;;;;;12.52;11.38;;;24.20;69.10;;;;;;5000310;28;20076;-67
2023/06/20 12:31:11;;;;;;;13.85;11.90;;;24.20;68.90;;;;;;5002016;28;20034;-68
2023/06/20 12:33:37;;;;;;;12.90;11.70;;;24.20;69.00;;;;;;5005102;28;20289;-68
2023/06/20 12:36:03;;;;;;;15.82;12.00;;;24.30;69.70;;;;;;5002182;28;20056;-67
2023/06/20 12:38:30;;;;;;;12.18;10.77;;;24.30;69.60;;;;;;5003721;28;20116;-67
2023/06/20 12:40:59;;;;;;;13.23;11.93;;;24.30;69.20;;;;;;5002718;28;20030;-66
2023/06/20 12:43:24;;;;;;;13.40;11.88;;;24.30;69.00;;;;;;5000067;28;20128;-68